sensor_id;sensor_type;location;lat;lon;timestamp;P1;durP1;ratioP1;P2;durP2;ratioP2
21806;SDS011;11065;50.786;7.840;2023-12-20T00:01:19;1.47;;;0.80;;
21806;SDS011;11065;50.786;7.840;2023-12-20T00:03:49;0.83;;;0.60;;
21806;SDS011;11065;50.786;7.840;2023-12-20T00:06:17;1.10;;;0.60;;
21806;SDS011;11065;50.786;7.840;2023-12-20T00:08:46;1.00;;;0.70;;
21806;SDS011;11065;50.786;7.840;2023-12-20T00:11:14;14.97;;;8.60;;
21806;SDS011;11065;50.786;7.840;2023-12-20T00:13:42;5.77;;;2.90;;
21806;SDS011;11065;50.786;7.840;2023-12-20T00:16:11;4.13;;;1.80;;
21806;SDS011;11065;50.786;7.840;2023-12-20T00:18:39;2.03;;;1.03;;
21806;SDS011;11065;50.786;7.840;2023-12-20T00:21:08;1.53;;;1.00;;
21806;SDS011;11065;50.786;7.840;2023-12-20T00:23:36;2.93;;;0.90;;
21806;SDS011;11065;50.786;7.840;2023-12-20T00:26:04;1.37;;;0.73;;
21806;SDS011;11065;50.786;7.840;2023-12-20T00:28:32;0.90;;;0.73;;
21806;SDS011;11065;50.786;7.840;2023-12-20T00:31:00;0.80;;;0.70;;
21806;SDS011;11065;50.786;7.840;2023-12-20T00:33:28;0.57;;;0.50;;
21806;SDS011;11065;50.786;7.840;2023-12-20T00:35:57;0.63;;;0.53;;
21806;SDS011;11065;50.786;7.840;2023-12-20T00:38:26;0.50;;;0.50;;
21806;SDS011;11065;50.786;7.840;2023-12-20T00:40:54;0.80;;;0.60;;
21806;SDS011;11065;50.786;7.840;2023-12-20T00:43:22;1.57;;;0.67;;
21806;SDS011;11065;50.786;7.840;2023-12-20T00:45:50;1.23;;;0.70;;
21806;SDS011;11065;50.786;7.840;2023-12-20T00:48:18;1.13;;;0.73;;
21806;SDS011;11065;50.786;7.840;2023-12-20T00:50:46;1.17;;;0.70;;
21806;SDS011;11065;50.786;7.840;2023-12-20T00:53:14;0.77;;;0.57;;
21806;SDS011;11065;50.786;7.840;2023-12-20T00:55:44;1.07;;;0.70;;
21806;SDS011;11065;50.786;7.840;2023-12-20T00:58:12;0.50;;;0.40;;
21806;SDS011;11065;50.786;7.840;2023-12-20T01:00:41;0.50;;;0.50;;
21806;SDS011;11065;50.786;7.840;2023-12-20T01:03:10;0.43;;;0.37;;
21806;SDS011;11065;50.786;7.840;2023-12-20T01:05:38;0.50;;;0.33;;
21806;SDS011;11065;50.786;7.840;2023-12-20T01:08:06;0.50;;;0.50;;
21806;SDS011;11065;50.786;7.840;2023-12-20T01:10:34;0.80;;;0.50;;
21806;SDS011;11065;50.786;7.840;2023-12-20T01:13:03;1.40;;;0.50;;
21806;SDS011;11065;50.786;7.840;2023-12-20T01:15:31;0.73;;;0.50;;
21806;SDS011;11065;50.786;7.840;2023-12-20T01:17:59;0.90;;;0.43;;
21806;SDS011;11065;50.786;7.840;2023-12-20T01:20:27;0.80;;;0.57;;
21806;SDS011;11065;50.786;7.840;2023-12-20T01:22:55;0.83;;;0.40;;
21806;SDS011;11065;50.786;7.840;2023-12-20T01:25:23;0.50;;;0.50;;
21806;SDS011;11065;50.786;7.840;2023-12-20T01:27:51;0.63;;;0.40;;
21806;SDS011;11065;50.786;7.840;2023-12-20T01:30:20;1.03;;;0.50;;
21806;SDS011;11065;50.786;7.840;2023-12-20T01:32:48;1.13;;;0.50;;
21806;SDS011;11065;50.786;7.840;2023-12-20T01:35:16;0.50;;;0.47;;
21806;SDS011;11065;50.786;7.840;2023-12-20T01:37:44;0.80;;;0.47;;
21806;SDS011;11065;50.786;7.840;2023-12-20T01:40:12;0.50;;;0.40;;
21806;SDS011;11065;50.786;7.840;2023-12-20T01:42:41;0.67;;;0.50;;
21806;SDS011;11065;50.786;7.840;2023-12-20T01:45:09;0.53;;;0.40;;
21806;SDS011;11065;50.786;7.840;2023-12-20T01:47:38;0.53;;;0.40;;
21806;SDS011;11065;50.786;7.840;2023-12-20T01:50:07;0.87;;;0.40;;
21806;SDS011;11065;50.786;7.840;2023-12-20T01:52:35;0.60;;;0.50;;
21806;SDS011;11065;50.786;7.840;2023-12-20T01:55:04;0.70;;;0.60;;
21806;SDS011;11065;50.786;7.840;2023-12-20T01:57:40;0.60;;;0.47;;
21806;SDS011;11065;50.786;7.840;2023-12-20T02:00:09;0.50;;;0.50;;
21806;SDS011;11065;50.786;7.840;2023-12-20T02:02:42;1.00;;;0.60;;
21806;SDS011;11065;50.786;7.840;2023-12-20T02:05:12;2.80;;;0.60;;
21806;SDS011;11065;50.786;7.840;2023-12-20T02:07:41;2.43;;;0.57;;
21806;SDS011;11065;50.786;7.840;2023-12-20T02:10:09;0.90;;;0.57;;
21806;SDS011;11065;50.786;7.840;2023-12-20T02:12:37;3.40;;;0.90;;
21806;SDS011;11065;50.786;7.840;2023-12-20T02:15:06;2.23;;;0.60;;
21806;SDS011;11065;50.786;7.840;2023-12-20T02:17:34;2.27;;;0.60;;
21806;SDS011;11065;50.786;7.840;2023-12-20T02:20:05;2.90;;;0.77;;
21806;SDS011;11065;50.786;7.840;2023-12-20T02:22:35;3.40;;;0.90;;
21806;SDS011;11065;50.786;7.840;2023-12-20T02:25:03;1.30;;;0.87;;
21806;SDS011;11065;50.786;7.840;2023-12-20T02:27:32;2.37;;;1.00;;
21806;SDS011;11065;50.786;7.840;2023-12-20T02:30:00;2.40;;;0.80;;
21806;SDS011;11065;50.786;7.840;2023-12-20T02:32:28;2.33;;;0.90;;
21806;SDS011;11065;50.786;7.840;2023-12-20T02:34:57;3.70;;;0.90;;
21806;SDS011;11065;50.786;7.840;2023-12-20T02:37:25;2.30;;;0.90;;
21806;SDS011;11065;50.786;7.840;2023-12-20T02:39:54;2.23;;;1.00;;
21806;SDS011;11065;50.786;7.840;2023-12-20T02:42:22;1.63;;;0.83;;
21806;SDS011;11065;50.786;7.840;2023-12-20T02:44:50;2.00;;;0.97;;
21806;SDS011;11065;50.786;7.840;2023-12-20T02:47:19;2.70;;;0.90;;
21806;SDS011;11065;50.786;7.840;2023-12-20T02:49:49;4.27;;;1.17;;
21806;SDS011;11065;50.786;7.840;2023-12-20T02:52:17;2.87;;;1.20;;
21806;SDS011;11065;50.786;7.840;2023-12-20T02:54:46;3.63;;;1.40;;
21806;SDS011;11065;50.786;7.840;2023-12-20T02:57:15;3.73;;;1.40;;
21806;SDS011;11065;50.786;7.840;2023-12-20T02:59:44;4.57;;;1.57;;
21806;SDS011;11065;50.786;7.840;2023-12-20T03:02:12;6.10;;;2.00;;
21806;SDS011;11065;50.786;7.840;2023-12-20T03:04:40;3.60;;;1.87;;
21806;SDS011;11065;50.786;7.840;2023-12-20T03:07:08;4.03;;;1.90;;
21806;SDS011;11065;50.786;7.840;2023-12-20T03:09:38;4.07;;;1.77;;
21806;SDS011;11065;50.786;7.840;2023-12-20T03:12:27;3.73;;;2.27;;
21806;SDS011;11065;50.786;7.840;2023-12-20T03:14:55;4.53;;;2.23;;
21806;SDS011;11065;50.786;7.840;2023-12-20T03:17:23;4.00;;;2.53;;
21806;SDS011;11065;50.786;7.840;2023-12-20T03:19:51;5.23;;;2.50;;
21806;SDS011;11065;50.786;7.840;2023-12-20T03:22:19;7.13;;;3.10;;
21806;SDS011;11065;50.786;7.840;2023-12-20T03:24:47;4.53;;;3.00;;
21806;SDS011;11065;50.786;7.840;2023-12-20T03:27:15;5.13;;;2.77;;
21806;SDS011;11065;50.786;7.840;2023-12-20T03:29:46;6.90;;;3.93;;
21806;SDS011;11065;50.786;7.840;2023-12-20T03:32:14;5.80;;;3.60;;
21806;SDS011;11065;50.786;7.840;2023-12-20T03:34:42;6.57;;;4.07;;
21806;SDS011;11065;50.786;7.840;2023-12-20T03:37:10;6.00;;;3.50;;
21806;SDS011;11065;50.786;7.840;2023-12-20T03:39:38;8.90;;;4.57;;
21806;SDS011;11065;50.786;7.840;2023-12-20T03:42:06;6.60;;;4.03;;
21806;SDS011;11065;50.786;7.840;2023-12-20T03:44:34;7.27;;;3.93;;
21806;SDS011;11065;50.786;7.840;2023-12-20T03:47:03;5.93;;;3.90;;
21806;SDS011;11065;50.786;7.840;2023-12-20T03:49:31;7.20;;;4.23;;
21806;SDS011;11065;50.786;7.840;2023-12-20T03:51:59;5.90;;;3.23;;
21806;SDS011;11065;50.786;7.840;2023-12-20T03:54:27;4.93;;;2.90;;
21806;SDS011;11065;50.786;7.840;2023-12-20T03:56:55;5.63;;;3.20;;
21806;SDS011;11065;50.786;7.840;2023-12-20T03:59:23;7.23;;;3.10;;
21806;SDS011;11065;50.786;7.840;2023-12-20T04:01:51;6.83;;;3.50;;
21806;SDS011;11065;50.786;7.840;2023-12-20T04:04:20;5.10;;;2.77;;
21806;SDS011;11065;50.786;7.840;2023-12-20T04:06:48;6.50;;;3.10;;
21806;SDS011;11065;50.786;7.840;2023-12-20T04:09:16;5.00;;;2.83;;
21806;SDS011;11065;50.786;7.840;2023-12-20T04:11:44;5.60;;;3.00;;
21806;SDS011;11065;50.786;7.840;2023-12-20T04:14:12;5.77;;;2.70;;
21806;SDS011;11065;50.786;7.840;2023-12-20T04:16:40;8.47;;;3.07;;
21806;SDS011;11065;50.786;7.840;2023-12-20T04:19:13;5.10;;;2.87;;
21806;SDS011;11065;50.786;7.840;2023-12-20T04:21:42;4.93;;;2.40;;
21806;SDS011;11065;50.786;7.840;2023-12-20T04:24:10;6.27;;;2.50;;
21806;SDS011;11065;50.786;7.840;2023-12-20T04:26:38;6.27;;;2.63;;
21806;SDS011;11065;50.786;7.840;2023-12-20T04:29:06;9.40;;;2.90;;
21806;SDS011;11065;50.786;7.840;2023-12-20T04:31:33;7.20;;;2.40;;
21806;SDS011;11065;50.786;7.840;2023-12-20T04:34:01;7.17;;;2.50;;
21806;SDS011;11065;50.786;7.840;2023-12-20T04:36:29;4.60;;;2.10;;
21806;SDS011;11065;50.786;7.840;2023-12-20T04:38:59;5.57;;;2.13;;
21806;SDS011;11065;50.786;7.840;2023-12-20T04:41:26;4.67;;;2.00;;
21806;SDS011;11065;50.786;7.840;2023-12-20T04:43:54;4.57;;;1.90;;
21806;SDS011;11065;50.786;7.840;2023-12-20T04:46:22;8.83;;;2.97;;
21806;SDS011;11065;50.786;7.840;2023-12-20T04:48:50;4.63;;;2.50;;
21806;SDS011;11065;50.786;7.840;2023-12-20T04:51:18;4.63;;;2.20;;
21806;SDS011;11065;50.786;7.840;2023-12-20T04:53:47;5.20;;;2.00;;
21806;SDS011;11065;50.786;7.840;2023-12-20T04:56:16;8.10;;;2.10;;
21806;SDS011;11065;50.786;7.840;2023-12-20T04:58:44;6.47;;;2.27;;
21806;SDS011;11065;50.786;7.840;2023-12-20T05:01:12;6.50;;;2.20;;
21806;SDS011;11065;50.786;7.840;2023-12-20T05:03:40;5.37;;;2.23;;
21806;SDS011;11065;50.786;7.840;2023-12-20T05:06:09;7.07;;;2.30;;
21806;SDS011;11065;50.786;7.840;2023-12-20T05:08:37;4.57;;;1.70;;
21806;SDS011;11065;50.786;7.840;2023-12-20T05:11:05;9.63;;;3.00;;
21806;SDS011;11065;50.786;7.840;2023-12-20T05:13:34;6.40;;;2.20;;
21806;SDS011;11065;50.786;7.840;2023-12-20T05:16:13;7.40;;;2.23;;
21806;SDS011;11065;50.786;7.840;2023-12-20T05:18:45;7.17;;;1.93;;
21806;SDS011;11065;50.786;7.840;2023-12-20T05:21:14;10.40;;;2.17;;
21806;SDS011;11065;50.786;7.840;2023-12-20T05:23:42;6.87;;;2.40;;
21806;SDS011;11065;50.786;7.840;2023-12-20T05:26:10;5.83;;;2.47;;
21806;SDS011;11065;50.786;7.840;2023-12-20T05:28:40;7.67;;;2.20;;
21806;SDS011;11065;50.786;7.840;2023-12-20T05:31:08;4.77;;;2.00;;
21806;SDS011;11065;50.786;7.840;2023-12-20T05:33:36;5.73;;;2.27;;
21806;SDS011;11065;50.786;7.840;2023-12-20T05:36:04;8.70;;;2.83;;
21806;SDS011;11065;50.786;7.840;2023-12-20T05:38:37;7.50;;;2.07;;
21806;SDS011;11065;50.786;7.840;2023-12-20T05:41:05;7.27;;;2.20;;
21806;SDS011;11065;50.786;7.840;2023-12-20T05:43:33;6.23;;;2.40;;
21806;SDS011;11065;50.786;7.840;2023-12-20T05:46:02;8.80;;;2.50;;
21806;SDS011;11065;50.786;7.840;2023-12-20T05:48:30;6.13;;;2.13;;
21806;SDS011;11065;50.786;7.840;2023-12-20T05:50:58;7.77;;;2.57;;
21806;SDS011;11065;50.786;7.840;2023-12-20T05:53:26;7.43;;;3.20;;
21806;SDS011;11065;50.786;7.840;2023-12-20T05:55:54;7.30;;;2.40;;
21806;SDS011;11065;50.786;7.840;2023-12-20T05:58:22;8.40;;;2.37;;
21806;SDS011;11065;50.786;7.840;2023-12-20T06:00:50;7.77;;;2.00;;
21806;SDS011;11065;50.786;7.840;2023-12-20T06:03:19;5.00;;;1.97;;
21806;SDS011;11065;50.786;7.840;2023-12-20T06:05:47;7.43;;;2.13;;
21806;SDS011;11065;50.786;7.840;2023-12-20T06:08:16;6.50;;;2.17;;
21806;SDS011;11065;50.786;7.840;2023-12-20T06:10:44;7.97;;;2.23;;
21806;SDS011;11065;50.786;7.840;2023-12-20T06:13:12;6.87;;;2.17;;
21806;SDS011;11065;50.786;7.840;2023-12-20T06:15:41;5.50;;;2.40;;
21806;SDS011;11065;50.786;7.840;2023-12-20T06:18:09;8.30;;;2.40;;
21806;SDS011;11065;50.786;7.840;2023-12-20T06:20:39;8.57;;;2.23;;
21806;SDS011;11065;50.786;7.840;2023-12-20T06:23:07;9.50;;;2.87;;
21806;SDS011;11065;50.786;7.840;2023-12-20T06:25:35;7.00;;;2.53;;
21806;SDS011;11065;50.786;7.840;2023-12-20T06:28:03;5.37;;;2.00;;
21806;SDS011;11065;50.786;7.840;2023-12-20T06:30:31;5.77;;;1.93;;
21806;SDS011;11065;50.786;7.840;2023-12-20T06:33:00;5.23;;;2.23;;
21806;SDS011;11065;50.786;7.840;2023-12-20T06:35:28;7.40;;;2.23;;
21806;SDS011;11065;50.786;7.840;2023-12-20T06:38:02;7.73;;;2.47;;
21806;SDS011;11065;50.786;7.840;2023-12-20T06:40:30;7.07;;;2.43;;
21806;SDS011;11065;50.786;7.840;2023-12-20T06:42:58;8.20;;;2.70;;
21806;SDS011;11065;50.786;7.840;2023-12-20T06:45:37;9.13;;;2.87;;
21806;SDS011;11065;50.786;7.840;2023-12-20T06:48:06;5.93;;;2.07;;
21806;SDS011;11065;50.786;7.840;2023-12-20T06:50:34;8.70;;;2.20;;
21806;SDS011;11065;50.786;7.840;2023-12-20T06:53:07;9.23;;;2.23;;
21806;SDS011;11065;50.786;7.840;2023-12-20T06:55:35;8.90;;;2.20;;
21806;SDS011;11065;50.786;7.840;2023-12-20T06:58:04;7.10;;;2.80;;
21806;SDS011;11065;50.786;7.840;2023-12-20T07:00:32;8.27;;;2.77;;
21806;SDS011;11065;50.786;7.840;2023-12-20T07:03:00;6.70;;;2.30;;
21806;SDS011;11065;50.786;7.840;2023-12-20T07:05:29;7.80;;;2.50;;
21806;SDS011;11065;50.786;7.840;2023-12-20T07:07:57;7.00;;;2.80;;
21806;SDS011;11065;50.786;7.840;2023-12-20T07:10:26;7.97;;;3.17;;
21806;SDS011;11065;50.786;7.840;2023-12-20T07:12:54;7.67;;;2.37;;
21806;SDS011;11065;50.786;7.840;2023-12-20T07:15:22;9.80;;;2.47;;
21806;SDS011;11065;50.786;7.840;2023-12-20T07:17:51;7.93;;;2.93;;
21806;SDS011;11065;50.786;7.840;2023-12-20T07:20:19;8.53;;;2.83;;
21806;SDS011;11065;50.786;7.840;2023-12-20T07:22:47;7.23;;;2.90;;
21806;SDS011;11065;50.786;7.840;2023-12-20T07:25:15;7.60;;;2.33;;
21806;SDS011;11065;50.786;7.840;2023-12-20T07:27:44;7.70;;;2.70;;
21806;SDS011;11065;50.786;7.840;2023-12-20T07:30:13;10.33;;;3.50;;
21806;SDS011;11065;50.786;7.840;2023-12-20T07:32:41;7.57;;;2.80;;
21806;SDS011;11065;50.786;7.840;2023-12-20T07:35:09;7.00;;;2.37;;
21806;SDS011;11065;50.786;7.840;2023-12-20T07:37:39;8.53;;;3.13;;
21806;SDS011;11065;50.786;7.840;2023-12-20T07:40:07;7.93;;;3.40;;
21806;SDS011;11065;50.786;7.840;2023-12-20T07:42:35;8.00;;;2.93;;
21806;SDS011;11065;50.786;7.840;2023-12-20T07:45:05;6.67;;;3.07;;
21806;SDS011;11065;50.786;7.840;2023-12-20T07:47:33;9.23;;;3.40;;
21806;SDS011;11065;50.786;7.840;2023-12-20T07:50:02;7.73;;;3.60;;
21806;SDS011;11065;50.786;7.840;2023-12-20T07:52:30;8.83;;;2.90;;
21806;SDS011;11065;50.786;7.840;2023-12-20T07:54:58;6.77;;;2.90;;
21806;SDS011;11065;50.786;7.840;2023-12-20T07:57:28;8.30;;;3.17;;
21806;SDS011;11065;50.786;7.840;2023-12-20T07:59:56;8.53;;;3.33;;
21806;SDS011;11065;50.786;7.840;2023-12-20T08:02:26;6.57;;;3.00;;
21806;SDS011;11065;50.786;7.840;2023-12-20T08:04:54;6.30;;;3.27;;
21806;SDS011;11065;50.786;7.840;2023-12-20T08:07:22;7.63;;;2.77;;
21806;SDS011;11065;50.786;7.840;2023-12-20T08:09:50;8.63;;;2.83;;
21806;SDS011;11065;50.786;7.840;2023-12-20T08:12:20;9.23;;;3.10;;
21806;SDS011;11065;50.786;7.840;2023-12-20T08:14:47;12.37;;;3.17;;
21806;SDS011;11065;50.786;7.840;2023-12-20T08:17:15;10.30;;;2.97;;
21806;SDS011;11065;50.786;7.840;2023-12-20T08:19:47;7.80;;;3.00;;
21806;SDS011;11065;50.786;7.840;2023-12-20T08:22:15;11.93;;;2.93;;
21806;SDS011;11065;50.786;7.840;2023-12-20T08:24:44;8.57;;;2.90;;
21806;SDS011;11065;50.786;7.840;2023-12-20T08:27:12;9.00;;;2.83;;
21806;SDS011;11065;50.786;7.840;2023-12-20T08:29:40;6.20;;;2.50;;
21806;SDS011;11065;50.786;7.840;2023-12-20T08:32:10;7.17;;;2.30;;
21806;SDS011;11065;50.786;7.840;2023-12-20T08:34:39;9.33;;;2.90;;
21806;SDS011;11065;50.786;7.840;2023-12-20T08:37:08;7.53;;;2.37;;
21806;SDS011;11065;50.786;7.840;2023-12-20T08:39:36;7.30;;;2.43;;
21806;SDS011;11065;50.786;7.840;2023-12-20T08:42:06;7.20;;;2.50;;
21806;SDS011;11065;50.786;7.840;2023-12-20T08:44:34;8.53;;;4.13;;
21806;SDS011;11065;50.786;7.840;2023-12-20T08:47:02;8.50;;;3.37;;
21806;SDS011;11065;50.786;7.840;2023-12-20T08:49:30;8.23;;;3.03;;
21806;SDS011;11065;50.786;7.840;2023-12-20T08:51:59;8.30;;;2.43;;
21806;SDS011;11065;50.786;7.840;2023-12-20T08:54:28;6.37;;;2.23;;
21806;SDS011;11065;50.786;7.840;2023-12-20T08:56:56;6.10;;;2.13;;
21806;SDS011;11065;50.786;7.840;2023-12-20T08:59:24;7.90;;;3.23;;
21806;SDS011;11065;50.786;7.840;2023-12-20T09:01:52;6.87;;;2.87;;
21806;SDS011;11065;50.786;7.840;2023-12-20T09:04:22;6.73;;;2.23;;
21806;SDS011;11065;50.786;7.840;2023-12-20T09:06:50;8.80;;;2.13;;
21806;SDS011;11065;50.786;7.840;2023-12-20T09:09:18;7.47;;;2.50;;
21806;SDS011;11065;50.786;7.840;2023-12-20T09:11:48;7.13;;;2.27;;
21806;SDS011;11065;50.786;7.840;2023-12-20T09:14:17;8.67;;;2.07;;
21806;SDS011;11065;50.786;7.840;2023-12-20T09:16:45;7.53;;;2.40;;
21806;SDS011;11065;50.786;7.840;2023-12-20T09:19:13;5.47;;;1.93;;
21806;SDS011;11065;50.786;7.840;2023-12-20T09:21:41;8.80;;;1.90;;
21806;SDS011;11065;50.786;7.840;2023-12-20T09:24:09;7.07;;;2.00;;
21806;SDS011;11065;50.786;7.840;2023-12-20T09:26:37;7.37;;;2.20;;
21806;SDS011;11065;50.786;7.840;2023-12-20T09:29:07;7.13;;;2.47;;
21806;SDS011;11065;50.786;7.840;2023-12-20T09:31:37;7.20;;;2.20;;
21806;SDS011;11065;50.786;7.840;2023-12-20T09:34:05;6.97;;;2.27;;
21806;SDS011;11065;50.786;7.840;2023-12-20T09:36:33;9.27;;;2.83;;
21806;SDS011;11065;50.786;7.840;2023-12-20T09:39:02;10.03;;;2.70;;
21806;SDS011;11065;50.786;7.840;2023-12-20T09:41:31;8.13;;;2.47;;
21806;SDS011;11065;50.786;7.840;2023-12-20T09:44:01;8.20;;;1.90;;
21806;SDS011;11065;50.786;7.840;2023-12-20T09:46:32;6.50;;;2.00;;
21806;SDS011;11065;50.786;7.840;2023-12-20T09:49:02;7.63;;;2.17;;
21806;SDS011;11065;50.786;7.840;2023-12-20T09:51:30;9.37;;;2.43;;
21806;SDS011;11065;50.786;7.840;2023-12-20T09:53:59;8.20;;;2.20;;
21806;SDS011;11065;50.786;7.840;2023-12-20T09:56:30;7.50;;;2.33;;
21806;SDS011;11065;50.786;7.840;2023-12-20T09:58:59;8.33;;;2.57;;
21806;SDS011;11065;50.786;7.840;2023-12-20T10:01:27;5.83;;;1.73;;
21806;SDS011;11065;50.786;7.840;2023-12-20T10:03:57;8.13;;;2.10;;
21806;SDS011;11065;50.786;7.840;2023-12-20T10:06:30;5.53;;;1.73;;
21806;SDS011;11065;50.786;7.840;2023-12-20T10:08:58;10.27;;;2.43;;
21806;SDS011;11065;50.786;7.840;2023-12-20T10:11:26;5.40;;;2.33;;
21806;SDS011;11065;50.786;7.840;2023-12-20T10:13:58;5.10;;;1.90;;
21806;SDS011;11065;50.786;7.840;2023-12-20T10:16:27;8.77;;;2.10;;
21806;SDS011;11065;50.786;7.840;2023-12-20T10:18:55;7.23;;;2.10;;
21806;SDS011;11065;50.786;7.840;2023-12-20T10:21:25;6.73;;;2.07;;
21806;SDS011;11065;50.786;7.840;2023-12-20T10:23:54;7.03;;;2.57;;
21806;SDS011;11065;50.786;7.840;2023-12-20T10:26:23;5.03;;;1.67;;
21806;SDS011;11065;50.786;7.840;2023-12-20T10:28:53;7.83;;;2.13;;
21806;SDS011;11065;50.786;7.840;2023-12-20T10:31:28;7.70;;;2.03;;
21806;SDS011;11065;50.786;7.840;2023-12-20T10:33:59;8.33;;;2.10;;
21806;SDS011;11065;50.786;7.840;2023-12-20T10:36:28;7.67;;;2.30;;
21806;SDS011;11065;50.786;7.840;2023-12-20T10:38:57;5.10;;;2.00;;
21806;SDS011;11065;50.786;7.840;2023-12-20T10:41:28;9.87;;;2.30;;
21806;SDS011;11065;50.786;7.840;2023-12-20T10:43:58;6.20;;;1.97;;
21806;SDS011;11065;50.786;7.840;2023-12-20T10:46:27;4.70;;;1.87;;
21806;SDS011;11065;50.786;7.840;2023-12-20T10:48:56;6.13;;;1.90;;
21806;SDS011;11065;50.786;7.840;2023-12-20T10:51:25;5.03;;;1.60;;
21806;SDS011;11065;50.786;7.840;2023-12-20T10:53:55;6.60;;;1.80;;
21806;SDS011;11065;50.786;7.840;2023-12-20T10:56:24;6.20;;;1.73;;
21806;SDS011;11065;50.786;7.840;2023-12-20T10:58:52;5.23;;;1.80;;
21806;SDS011;11065;50.786;7.840;2023-12-20T11:01:22;6.30;;;1.63;;
21806;SDS011;11065;50.786;7.840;2023-12-20T11:03:51;5.40;;;1.50;;
21806;SDS011;11065;50.786;7.840;2023-12-20T11:06:26;7.23;;;2.10;;
21806;SDS011;11065;50.786;7.840;2023-12-20T11:09:02;6.50;;;2.13;;
21806;SDS011;11065;50.786;7.840;2023-12-20T11:11:41;8.17;;;1.80;;
21806;SDS011;11065;50.786;7.840;2023-12-20T11:14:21;6.67;;;1.80;;
21806;SDS011;11065;50.786;7.840;2023-12-20T11:17:04;8.10;;;1.83;;
21806;SDS011;11065;50.786;7.840;2023-12-20T11:19:35;7.57;;;1.50;;
21806;SDS011;11065;50.786;7.840;2023-12-20T11:22:05;5.57;;;1.90;;
21806;SDS011;11065;50.786;7.840;2023-12-20T11:24:33;9.53;;;1.70;;
21806;SDS011;11065;50.786;7.840;2023-12-20T11:27:04;5.83;;;2.00;;
21806;SDS011;11065;50.786;7.840;2023-12-20T11:29:32;6.53;;;2.00;;
21806;SDS011;11065;50.786;7.840;2023-12-20T11:32:02;7.30;;;2.07;;
21806;SDS011;11065;50.786;7.840;2023-12-20T11:34:51;10.23;;;2.30;;
21806;SDS011;11065;50.786;7.840;2023-12-20T11:37:25;3.43;;;1.80;;
21806;SDS011;11065;50.786;7.840;2023-12-20T11:40:00;5.57;;;1.70;;
21806;SDS011;11065;50.786;7.840;2023-12-20T11:42:32;5.43;;;1.87;;
21806;SDS011;11065;50.786;7.840;2023-12-20T11:45:01;5.17;;;1.80;;
21806;SDS011;11065;50.786;7.840;2023-12-20T11:47:30;7.67;;;1.77;;
21806;SDS011;11065;50.786;7.840;2023-12-20T11:49:59;5.67;;;1.60;;
21806;SDS011;11065;50.786;7.840;2023-12-20T11:52:31;4.87;;;1.67;;
21806;SDS011;11065;50.786;7.840;2023-12-20T11:54:59;6.37;;;1.70;;
21806;SDS011;11065;50.786;7.840;2023-12-20T11:57:27;6.40;;;1.90;;
21806;SDS011;11065;50.786;7.840;2023-12-20T11:59:55;6.80;;;1.80;;
21806;SDS011;11065;50.786;7.840;2023-12-20T12:02:23;9.03;;;2.10;;
21806;SDS011;11065;50.786;7.840;2023-12-20T12:04:51;7.97;;;1.97;;
21806;SDS011;11065;50.786;7.840;2023-12-20T12:07:20;10.03;;;1.90;;
21806;SDS011;11065;50.786;7.840;2023-12-20T12:09:50;7.17;;;2.20;;
21806;SDS011;11065;50.786;7.840;2023-12-20T12:12:19;6.67;;;1.90;;
21806;SDS011;11065;50.786;7.840;2023-12-20T12:14:47;6.83;;;1.87;;
21806;SDS011;11065;50.786;7.840;2023-12-20T12:17:16;6.67;;;1.97;;
21806;SDS011;11065;50.786;7.840;2023-12-20T12:19:45;6.60;;;2.00;;
21806;SDS011;11065;50.786;7.840;2023-12-20T12:22:14;5.87;;;2.00;;
21806;SDS011;11065;50.786;7.840;2023-12-20T12:24:43;9.33;;;2.60;;
21806;SDS011;11065;50.786;7.840;2023-12-20T12:27:13;6.57;;;2.03;;
21806;SDS011;11065;50.786;7.840;2023-12-20T12:29:59;5.80;;;2.03;;
21806;SDS011;11065;50.786;7.840;2023-12-20T12:32:28;7.57;;;2.37;;
21806;SDS011;11065;50.786;7.840;2023-12-20T12:34:56;6.03;;;2.60;;
21806;SDS011;11065;50.786;7.840;2023-12-20T12:37:24;5.87;;;2.10;;
21806;SDS011;11065;50.786;7.840;2023-12-20T12:39:53;6.33;;;2.00;;
21806;SDS011;11065;50.786;7.840;2023-12-20T12:42:23;7.30;;;2.53;;
21806;SDS011;11065;50.786;7.840;2023-12-20T12:44:54;4.00;;;1.73;;
21806;SDS011;11065;50.786;7.840;2023-12-20T12:47:22;7.57;;;2.00;;
21806;SDS011;11065;50.786;7.840;2023-12-20T12:49:51;7.83;;;2.53;;
21806;SDS011;11065;50.786;7.840;2023-12-20T12:52:20;7.27;;;2.33;;
21806;SDS011;11065;50.786;7.840;2023-12-20T12:54:49;6.10;;;2.20;;
21806;SDS011;11065;50.786;7.840;2023-12-20T12:57:17;5.70;;;1.80;;
21806;SDS011;11065;50.786;7.840;2023-12-20T12:59:47;8.27;;;1.97;;
21806;SDS011;11065;50.786;7.840;2023-12-20T13:02:15;8.07;;;2.90;;
21806;SDS011;11065;50.786;7.840;2023-12-20T13:04:44;5.90;;;2.10;;
21806;SDS011;11065;50.786;7.840;2023-12-20T13:07:12;6.47;;;2.07;;
21806;SDS011;11065;50.786;7.840;2023-12-20T13:09:41;6.87;;;2.20;;
21806;SDS011;11065;50.786;7.840;2023-12-20T13:12:09;6.23;;;1.77;;
21806;SDS011;11065;50.786;7.840;2023-12-20T13:14:37;6.17;;;1.90;;
21806;SDS011;11065;50.786;7.840;2023-12-20T13:17:06;4.93;;;2.00;;
21806;SDS011;11065;50.786;7.840;2023-12-20T13:19:34;4.57;;;1.63;;
21806;SDS011;11065;50.786;7.840;2023-12-20T13:22:02;4.63;;;1.73;;
21806;SDS011;11065;50.786;7.840;2023-12-20T13:24:31;6.27;;;2.20;;
21806;SDS011;11065;50.786;7.840;2023-12-20T13:26:59;4.57;;;1.50;;
21806;SDS011;11065;50.786;7.840;2023-12-20T13:29:27;6.43;;;1.87;;
21806;SDS011;11065;50.786;7.840;2023-12-20T13:31:55;6.17;;;1.83;;
21806;SDS011;11065;50.786;7.840;2023-12-20T13:34:25;6.33;;;2.10;;
21806;SDS011;11065;50.786;7.840;2023-12-20T13:36:54;2.97;;;1.47;;
21806;SDS011;11065;50.786;7.840;2023-12-20T13:39:23;6.53;;;2.30;;
21806;SDS011;11065;50.786;7.840;2023-12-20T13:41:51;8.40;;;2.03;;
21806;SDS011;11065;50.786;7.840;2023-12-20T13:44:19;6.53;;;2.17;;
21806;SDS011;11065;50.786;7.840;2023-12-20T13:46:47;7.43;;;2.13;;
21806;SDS011;11065;50.786;7.840;2023-12-20T13:49:16;3.93;;;1.90;;
21806;SDS011;11065;50.786;7.840;2023-12-20T13:51:45;5.27;;;1.77;;
21806;SDS011;11065;50.786;7.840;2023-12-20T13:54:13;5.50;;;2.07;;
21806;SDS011;11065;50.786;7.840;2023-12-20T13:56:43;6.40;;;2.20;;
21806;SDS011;11065;50.786;7.840;2023-12-20T13:59:31;7.63;;;2.77;;
21806;SDS011;11065;50.786;7.840;2023-12-20T14:01:59;6.57;;;2.00;;
21806;SDS011;11065;50.786;7.840;2023-12-20T14:04:27;8.10;;;2.33;;
21806;SDS011;11065;50.786;7.840;2023-12-20T14:07:10;6.23;;;2.20;;
21806;SDS011;11065;50.786;7.840;2023-12-20T14:09:39;5.70;;;1.73;;
21806;SDS011;11065;50.786;7.840;2023-12-20T14:12:11;5.73;;;2.30;;
21806;SDS011;11065;50.786;7.840;2023-12-20T14:14:39;6.40;;;2.27;;
21806;SDS011;11065;50.786;7.840;2023-12-20T14:17:07;6.57;;;2.43;;
21806;SDS011;11065;50.786;7.840;2023-12-20T14:19:35;7.77;;;2.00;;
21806;SDS011;11065;50.786;7.840;2023-12-20T14:22:03;4.73;;;1.80;;
21806;SDS011;11065;50.786;7.840;2023-12-20T14:24:34;7.40;;;1.93;;
21806;SDS011;11065;50.786;7.840;2023-12-20T14:27:03;4.73;;;1.67;;
21806;SDS011;11065;50.786;7.840;2023-12-20T14:29:31;6.73;;;2.23;;
21806;SDS011;11065;50.786;7.840;2023-12-20T14:31:59;5.77;;;2.30;;
21806;SDS011;11065;50.786;7.840;2023-12-20T14:34:29;4.33;;;1.93;;
21806;SDS011;11065;50.786;7.840;2023-12-20T14:36:57;5.47;;;1.77;;
21806;SDS011;11065;50.786;7.840;2023-12-20T14:39:25;3.83;;;1.90;;
21806;SDS011;11065;50.786;7.840;2023-12-20T14:41:54;4.57;;;1.90;;
21806;SDS011;11065;50.786;7.840;2023-12-20T14:44:22;3.80;;;1.83;;
21806;SDS011;11065;50.786;7.840;2023-12-20T14:46:51;4.77;;;1.53;;
21806;SDS011;11065;50.786;7.840;2023-12-20T14:49:19;6.63;;;1.80;;
21806;SDS011;11065;50.786;7.840;2023-12-20T14:51:47;4.50;;;1.40;;
21806;SDS011;11065;50.786;7.840;2023-12-20T14:54:15;4.43;;;1.50;;
21806;SDS011;11065;50.786;7.840;2023-12-20T14:56:43;5.13;;;1.67;;
21806;SDS011;11065;50.786;7.840;2023-12-20T14:59:12;4.23;;;1.93;;